Time;durP1;ratioP1;P1;durP2;ratioP2;P2;SDS_P1;SDS_P2;PMS_P1;PMS_P2;Temp;Humidity;BMP_temperature;BMP_pressure;BME280_temperature;BME280_humidity;BME280_pressure;Samples;Min_cycle;Max_cycle;Signal;HPM_P1;HPM_P2
2022/11/23 00:01:14;;;;;;;11.82;6.50;;;7.10;99.90;;;;;;6227876;23;20286;-83
2022/11/23 00:03:42;;;;;;;11.00;7.25;;;7.10;99.90;;;;;;6236235;22;20211;-82
2022/11/23 00:06:08;;;;;;;14.48;8.10;;;7.10;99.90;;;;;;6239350;23;20187;-83
2022/11/23 00:08:35;;;;;;;13.07;8.27;;;7.10;99.90;;;;;;6239222;23;20179;-82
2022/11/23 00:11:02;;;;;;;10.77;6.30;;;7.00;99.90;;;;;;6241020;23;20213;-81
2022/11/23 00:13:29;;;;;;;7.70;5.93;;;7.10;99.90;;;;;;6240293;23;20182;-84
2022/11/23 00:15:57;;;;;;;13.38;7.05;;;7.10;99.90;;;;;;6241120;22;20179;-85
2022/11/23 00:18:24;;;;;;;14.68;9.40;;;7.00;99.90;;;;;;6241974;23;20198;-83
2022/11/23 00:20:51;;;;;;;8.25;6.25;;;7.00;99.90;;;;;;6239650;22;20207;-82
2022/11/23 00:23:18;;;;;;;12.32;7.50;;;6.90;99.90;;;;;;6241617;23;20195;-84
2022/11/23 00:25:45;;;;;;;13.68;6.95;;;7.10;99.90;;;;;;6241288;23;20233;-84
2022/11/23 00:28:12;;;;;;;8.88;7.40;;;6.90;99.90;;;;;;6234398;22;20174;-82
2022/11/23 00:30:39;;;;;;;9.57;6.72;;;7.00;99.90;;;;;;6228095;23;20235;-83
2022/11/23 00:33:07;;;;;;;14.63;6.85;;;6.90;99.90;;;;;;6226517;23;20645;-83
2022/11/23 00:35:34;;;;;;;11.32;7.97;;;7.10;99.90;;;;;;6224448;23;20237;-81
2022/11/23 00:38:01;;;;;;;9.13;6.72;;;7.00;99.90;;;;;;6222252;23;20240;-81
2022/11/23 00:40:28;;;;;;;18.48;8.35;;;7.00;99.90;;;;;;6220975;23;20278;-81
2022/11/23 00:42:54;;;;;;;11.38;7.15;;;7.10;99.90;;;;;;6220595;23;20187;-80
2022/11/23 00:45:21;;;;;;;12.10;6.60;;;7.00;99.90;;;;;;6219967;23;20262;-81
2022/11/23 00:47:48;;;;;;;11.98;6.28;;;6.90;99.90;;;;;;6220536;23;20235;-81
2022/11/23 00:50:17;;;;;;;9.00;7.20;;;6.90;99.90;;;;;;6219023;23;20261;-81
2022/11/23 00:52:44;;;;;;;10.65;7.15;;;6.90;99.90;;;;;;6219135;23;20254;-80
2022/11/23 00:55:10;;;;;;;11.93;7.53;;;7.00;99.90;;;;;;6218828;23;20277;-82
2022/11/23 00:57:37;;;;;;;9.05;6.50;;;6.90;99.90;;;;;;6219530;23;20514;-81
2022/11/23 01:00:06;;;;;;;20.00;6.85;;;7.00;99.90;;;;;;6218359;23;20261;-81
2022/11/23 01:02:35;;;;;;;9.23;6.35;;;7.00;99.90;;;;;;6219443;23;20171;-82
2022/11/23 01:05:02;;;;;;;9.02;7.20;;;6.90;99.90;;;;;;6220700;23;20186;-80
2022/11/23 01:07:30;;;;;;;14.57;7.20;;;7.00;99.90;;;;;;6220655;23;20267;-82
2022/11/23 01:09:57;;;;;;;11.90;6.95;;;7.00;99.90;;;;;;6220318;23;20217;-80
2022/11/23 01:12:24;;;;;;;11.50;6.38;;;7.00;99.90;;;;;;6219813;23;20205;-80
2022/11/23 01:14:53;;;;;;;10.63;7.22;;;7.00;99.90;;;;;;6220703;23;20271;-84
2022/11/23 01:17:20;;;;;;;13.18;6.22;;;7.00;99.90;;;;;;6220727;23;20178;-81
2022/11/23 01:19:47;;;;;;;6.68;5.97;;;7.10;99.90;;;;;;6220308;23;20239;-81
2022/11/23 01:22:14;;;;;;;9.20;6.25;;;7.10;99.90;;;;;;6220132;23;20286;-81
2022/11/23 01:24:42;;;;;;;6.97;5.75;;;7.10;99.90;;;;;;6219064;23;20258;-82
2022/11/23 01:27:11;;;;;;;14.95;6.88;;;7.10;99.90;;;;;;6218435;23;20218;-80
2022/11/23 01:29:37;;;;;;;15.57;6.60;;;7.10;99.90;;;;;;6223575;23;20214;-81
2022/11/23 01:32:04;;;;;;;10.70;6.88;;;7.10;99.90;;;;;;6223853;23;20274;-82
2022/11/23 01:34:31;;;;;;;7.60;5.85;;;7.20;99.90;;;;;;6222238;23;20230;-82
2022/11/23 01:36:58;;;;;;;8.52;6.47;;;7.20;99.90;;;;;;6219315;23;20186;-83
2022/11/23 01:39:25;;;;;;;9.05;5.90;;;7.20;99.90;;;;;;6218632;23;20254;-82
2022/11/23 01:41:53;;;;;;;7.63;5.88;;;7.20;99.90;;;;;;6219254;23;20203;-81
2022/11/23 01:44:31;;;;;;;8.52;5.70;;;7.30;99.90;;;;;;6218689;23;20222;-83
2022/11/23 01:47:00;;;;;;;6.93;5.28;;;7.30;99.90;;;;;;6218870;23;20211;-82
2022/11/23 01:49:29;;;;;;;7.53;5.38;;;7.30;99.90;;;;;;6218813;23;20199;-82
2022/11/23 01:51:59;;;;;;;13.70;6.07;;;7.30;99.90;;;;;;6218641;23;20233;-82
2022/11/23 01:54:30;;;;;;;7.53;5.32;;;7.30;99.90;;;;;;6218965;23;20235;-81
2022/11/23 01:57:03;;;;;;;6.22;4.93;;;7.30;99.90;;;;;;6217584;23;20622;-82
2022/11/23 01:59:31;;;;;;;9.32;5.55;;;7.30;99.90;;;;;;6225898;23;20195;-82
2022/11/23 02:01:59;;;;;;;9.57;5.13;;;7.20;99.90;;;;;;6228281;23;20234;-81
2022/11/23 02:04:32;;;;;;;9.93;4.80;;;7.30;99.90;;;;;;6228068;23;20479;-84
2022/11/23 02:07:00;;;;;;;7.90;5.18;;;7.20;99.90;;;;;;6232090;22;20167;-83
2022/11/23 02:09:30;;;;;;;7.45;4.97;;;7.20;99.90;;;;;;6241750;22;20179;-84
2022/11/23 02:12:00;;;;;;;9.80;5.90;;;7.20;99.90;;;;;;6241773;22;20199;-83
2022/11/23 02:14:27;;;;;;;6.43;5.05;;;7.20;99.90;;;;;;6238660;22;20183;-81
2022/11/23 02:16:54;;;;;;;6.20;5.18;;;7.20;99.90;;;;;;6222201;23;20234;-83
2022/11/23 02:19:31;;;;;;;5.63;4.95;;;7.20;99.90;;;;;;6222209;23;20180;-82
2022/11/23 02:21:58;;;;;;;7.25;5.10;;;7.30;99.90;;;;;;6226505;23;20229;-81
2022/11/23 02:24:34;;;;;;;9.13;4.20;;;7.30;99.90;;;;;;6228182;23;20170;-81
2022/11/23 02:27:03;;;;;;;11.40;5.50;;;7.30;99.90;;;;;;6224006;23;20163;-84
2022/11/23 02:29:32;;;;;;;11.63;5.30;;;7.30;99.90;;;;;;6218139;23;20229;-82
2022/11/23 02:31:58;;;;;;;7.85;4.43;;;7.30;99.90;;;;;;6218833;23;20226;-82
2022/11/23 02:34:25;;;;;;;8.02;5.28;;;7.30;99.90;;;;;;6218922;23;20283;-81
2022/11/23 02:36:54;;;;;;;6.25;4.57;;;7.40;99.90;;;;;;6218172;23;20262;-83
2022/11/23 02:39:28;;;;;;;6.00;5.40;;;7.40;99.90;;;;;;6223537;23;20262;-81
2022/11/23 02:41:55;;;;;;;8.88;5.32;;;7.40;99.90;;;;;;6221169;23;20283;-83
2022/11/23 02:44:31;;;;;;;6.15;4.60;;;7.40;99.90;;;;;;6218145;23;20215;-82
2022/11/23 02:46:58;;;;;;;10.82;4.75;;;7.40;99.90;;;;;;6219869;23;20586;-81
2022/11/23 02:49:25;;;;;;;8.15;5.03;;;7.40;99.90;;;;;;6217566;23;20198;-82
2022/11/23 02:51:52;;;;;;;6.70;3.72;;;7.40;99.90;;;;;;6217220;23;20202;-81
2022/11/23 02:54:19;;;;;;;7.60;4.80;;;7.40;99.90;;;;;;6218064;23;20302;-83
2022/11/23 02:56:46;;;;;;;15.07;5.43;;;7.40;99.90;;;;;;6217103;23;20214;-82
2022/11/23 02:59:13;;;;;;;6.90;5.25;;;7.40;99.90;;;;;;6216579;23;20570;-81
2022/11/23 03:01:41;;;;;;;6.30;4.18;;;7.40;99.90;;;;;;6216845;23;20277;-82
2022/11/23 03:04:09;;;;;;;7.00;5.07;;;7.40;99.90;;;;;;6217933;23;20221;-82
2022/11/23 03:06:36;;;;;;;6.38;4.88;;;7.30;99.90;;;;;;6217953;23;20254;-83
2022/11/23 03:09:03;;;;;;;5.55;4.43;;;7.30;99.90;;;;;;6220082;23;20179;-82
2022/11/23 03:11:30;;;;;;;12.02;5.18;;;7.40;99.90;;;;;;6219603;23;20257;-81
2022/11/23 03:13:57;;;;;;;5.80;5.05;;;7.50;99.90;;;;;;6219550;23;20231;-82
2022/11/23 03:16:24;;;;;;;9.32;5.95;;;7.40;99.90;;;;;;6219482;23;20284;-81
2022/11/23 03:18:52;;;;;;;9.82;5.55;;;7.40;99.90;;;;;;6219912;23;20215;-81
2022/11/23 03:21:19;;;;;;;6.30;4.47;;;7.40;99.90;;;;;;6222483;23;20255;-81
2022/11/23 03:23:46;;;;;;;6.82;4.68;;;7.40;99.90;;;;;;6225576;23;20183;-81
2022/11/23 03:26:12;;;;;;;6.00;5.47;;;7.40;99.90;;;;;;6223783;23;20206;-81
2022/11/23 03:28:39;;;;;;;6.00;4.63;;;7.50;99.90;;;;;;6221175;23;20266;-82
2022/11/23 03:31:06;;;;;;;9.07;6.43;;;7.40;99.90;;;;;;6218370;23;20209;-81
2022/11/23 03:33:33;;;;;;;8.27;4.75;;;7.40;99.90;;;;;;6219797;23;20702;-83
2022/11/23 03:36:01;;;;;;;9.23;5.32;;;7.50;99.90;;;;;;6219453;23;20223;-83
2022/11/23 03:38:28;;;;;;;11.25;4.65;;;7.50;99.90;;;;;;6222184;23;20715;-81
2022/11/23 03:40:55;;;;;;;7.70;6.18;;;7.40;99.90;;;;;;6223131;23;20599;-81
2022/11/23 03:43:22;;;;;;;5.43;4.25;;;7.50;99.90;;;;;;6224516;23;20690;-82
2022/11/23 03:45:49;;;;;;;7.55;5.50;;;7.40;99.90;;;;;;6224735;23;20270;-82
2022/11/23 03:48:16;;;;;;;8.20;5.35;;;7.50;99.90;;;;;;6219252;23;20199;-83
2022/11/23 03:50:44;;;;;;;8.43;4.55;;;7.50;99.90;;;;;;6218553;23;20238;-82
2022/11/23 03:53:12;;;;;;;6.15;5.10;;;7.60;99.90;;;;;;6220568;23;20176;-81
2022/11/23 03:55:39;;;;;;;6.05;5.38;;;7.60;99.90;;;;;;6220314;23;20277;-81
2022/11/23 03:58:06;;;;;;;9.88;4.40;;;7.60;99.90;;;;;;6219525;23;20238;-80
2022/11/23 04:00:33;;;;;;;13.23;4.68;;;7.60;99.90;;;;;;6218096;23;20674;-82
2022/11/23 04:03:00;;;;;;;11.85;5.05;;;7.60;99.90;;;;;;6219063;23;20544;-80
2022/11/23 04:05:27;;;;;;;6.25;4.75;;;7.60;99.90;;;;;;6219049;23;20202;-81
2022/11/23 04:07:54;;;;;;;5.95;4.13;;;7.70;99.90;;;;;;6218949;23;20655;-81
2022/11/23 04:10:23;;;;;;;6.95;4.53;;;7.80;99.90;;;;;;6220313;23;20596;-81
2022/11/23 04:12:51;;;;;;;10.50;4.75;;;7.80;99.90;;;;;;6219782;23;20221;-81
2022/11/23 04:15:19;;;;;;;5.63;4.22;;;7.80;99.90;;;;;;6219182;23;20202;-81
2022/11/23 04:17:46;;;;;;;7.65;4.28;;;7.80;99.90;;;;;;6218331;23;20182;-81
2022/11/23 04:20:13;;;;;;;7.28;4.75;;;7.80;99.90;;;;;;6232059;23;20247;-79
2022/11/23 04:22:40;;;;;;;6.63;4.95;;;7.80;99.90;;;;;;6242878;22;20179;-79
2022/11/23 04:25:08;;;;;;;6.75;3.90;;;7.80;99.90;;;;;;6242952;22;20168;-79
2022/11/23 04:27:36;;;;;;;6.75;4.25;;;7.70;99.90;;;;;;6230530;22;20175;-80
2022/11/23 04:30:03;;;;;;;9.63;4.15;;;7.80;99.90;;;;;;6217965;23;20179;-81
2022/11/23 04:32:30;;;;;;;7.47;4.07;;;7.80;99.90;;;;;;6218387;23;20186;-81
2022/11/23 04:34:57;;;;;;;6.15;4.35;;;7.80;99.90;;;;;;6219500;23;20195;-81
2022/11/23 04:37:24;;;;;;;4.57;3.45;;;7.80;99.90;;;;;;6220027;23;20227;-81
2022/11/23 04:39:51;;;;;;;10.07;4.88;;;7.80;99.90;;;;;;6218814;23;20239;-81
2022/11/23 04:42:17;;;;;;;6.97;4.03;;;7.90;99.90;;;;;;6221426;23;20219;-82
2022/11/23 04:44:46;;;;;;;8.00;4.25;;;7.90;99.90;;;;;;6220003;23;20710;-82
2022/11/23 04:47:13;;;;;;;7.93;3.92;;;8.00;99.90;;;;;;6220155;23;20733;-82
2022/11/23 04:49:40;;;;;;;4.78;3.70;;;7.90;99.90;;;;;;6237858;23;20171;-80
2022/11/23 04:52:06;;;;;;;9.80;4.57;;;8.00;99.90;;;;;;6237966;23;20222;-81
2022/11/23 04:54:33;;;;;;;9.40;5.75;;;8.10;99.90;;;;;;6238167;23;20211;-81
2022/11/23 04:57:00;;;;;;;4.60;4.20;;;8.10;99.90;;;;;;6236564;23;20200;-81
2022/11/23 04:59:27;;;;;;;5.15;3.60;;;8.10;99.90;;;;;;6235828;23;20191;-81
2022/11/23 05:01:55;;;;;;;11.77;4.25;;;8.10;99.90;;;;;;6239353;23;20199;-81
2022/11/23 05:04:22;;;;;;;4.78;3.50;;;8.10;99.90;;;;;;6235730;23;20175;-80
2022/11/23 05:06:49;;;;;;;5.95;3.30;;;8.20;99.90;;;;;;6238337;23;20176;-81
2022/11/23 05:09:16;;;;;;;4.93;3.50;;;8.10;99.90;;;;;;6239341;22;20183;-81
2022/11/23 05:11:43;;;;;;;4.25;3.10;;;8.10;99.90;;;;;;6235377;23;20215;-81
2022/11/23 05:14:09;;;;;;;5.68;3.70;;;8.10;99.90;;;;;;6239229;23;20187;-81
2022/11/23 05:16:36;;;;;;;4.88;3.58;;;8.10;99.90;;;;;;6239415;23;20199;-81
2022/11/23 05:19:04;;;;;;;6.88;3.30;;;8.10;99.90;;;;;;6234673;23;20184;-81
2022/11/23 05:21:31;;;;;;;5.30;3.15;;;8.20;99.90;;;;;;6235379;23;20199;-80
2022/11/23 05:23:58;;;;;;;3.83;2.60;;;8.30;99.90;;;;;;6236578;23;20239;-81
2022/11/23 05:26:25;;;;;;;4.05;3.20;;;8.30;99.90;;;;;;6226588;23;20250;-82
2022/11/23 05:28:52;;;;;;;7.57;3.30;;;8.30;99.90;;;;;;6225217;23;20222;-80
2022/11/23 05:31:19;;;;;;;5.13;3.42;;;8.40;99.90;;;;;;6223263;23;20254;-80
2022/11/23 05:33:46;;;;;;;4.50;4.07;;;8.40;99.90;;;;;;6223659;23;20187;-81
2022/11/23 05:36:14;;;;;;;3.78;2.92;;;8.30;99.90;;;;;;6223267;23;20192;-81
2022/11/23 05:38:41;;;;;;;4.00;3.03;;;8.40;99.90;;;;;;6222346;23;20188;-80
2022/11/23 05:41:08;;;;;;;7.43;4.60;;;8.30;99.90;;;;;;6223477;23;20223;-81
2022/11/23 05:43:35;;;;;;;4.13;3.38;;;8.40;99.90;;;;;;6222076;23;20210;-81
2022/11/23 05:46:03;;;;;;;8.05;3.63;;;8.40;99.90;;;;;;6221728;23;20667;-81
2022/11/23 05:48:30;;;;;;;7.15;3.50;;;8.40;99.90;;;;;;6222696;23;20234;-81
2022/11/23 05:50:57;;;;;;;5.03;3.83;;;8.30;99.90;;;;;;6221435;23;20203;-80
2022/11/23 05:53:26;;;;;;;10.68;4.00;;;8.30;99.90;;;;;;6220905;23;20207;-81
2022/11/23 05:55:52;;;;;;;11.90;3.33;;;8.30;99.90;;;;;;6219529;23;20218;-81
2022/11/23 05:58:19;;;;;;;8.15;4.47;;;8.30;99.90;;;;;;6219704;23;20211;-81
2022/11/23 06:00:46;;;;;;;9.25;3.40;;;8.40;99.90;;;;;;6219602;23;20270;-82
2022/11/23 06:03:13;;;;;;;4.80;2.85;;;8.40;99.90;;;;;;6219779;23;20203;-81
2022/11/23 06:05:40;;;;;;;8.65;3.70;;;8.40;99.90;;;;;;6219811;23;20554;-80
2022/11/23 06:08:07;;;;;;;6.90;3.60;;;8.50;99.90;;;;;;6219893;23;20207;-81
2022/11/23 06:10:35;;;;;;;6.55;3.60;;;8.50;99.90;;;;;;6218417;23;20202;-81
2022/11/23 06:13:03;;;;;;;3.90;3.50;;;8.50;99.90;;;;;;6218645;23;20650;-82
2022/11/23 06:15:30;;;;;;;6.80;3.75;;;8.60;99.90;;;;;;6220023;23;20505;-82
2022/11/23 06:18:00;;;;;;;9.95;3.35;;;8.60;99.90;;;;;;6220025;23;20642;-82
2022/11/23 06:20:27;;;;;;;7.80;3.15;;;8.70;99.90;;;;;;6218821;23;20191;-81
2022/11/23 06:22:58;;;;;;;5.93;3.45;;;8.70;99.90;;;;;;6226781;23;20223;-88
2022/11/23 06:25:24;;;;;;;12.00;3.90;;;8.70;99.90;;;;;;6230843;23;20665;-82
2022/11/23 06:27:55;;;;;;;7.43;3.80;;;8.70;99.90;;;;;;6229849;23;20242;-83
2022/11/23 06:30:22;;;;;;;8.50;4.10;;;8.70;99.90;;;;;;6235429;23;20166;-81
2022/11/23 06:32:49;;;;;;;8.30;3.58;;;8.60;99.90;;;;;;6239813;22;20187;-83
2022/11/23 06:35:19;;;;;;;9.05;4.88;;;8.60;99.90;;;;;;6241209;22;20159;-81
2022/11/23 06:37:54;;;;;;;9.00;5.78;;;8.60;99.90;;;;;;6240634;22;20163;-87
2022/11/23 06:40:21;;;;;;;5.25;4.25;;;8.60;99.90;;;;;;6237133;22;20234;-85
2022/11/23 06:42:48;;;;;;;8.07;5.57;;;8.60;99.90;;;;;;6239980;23;20210;-84
2022/11/23 06:45:17;;;;;;;5.55;4.00;;;8.70;99.90;;;;;;6240666;23;20278;-84
2022/11/23 06:47:43;;;;;;;8.75;4.80;;;8.60;99.90;;;;;;6239741;23;20172;-83
2022/11/23 06:50:11;;;;;;;5.15;4.65;;;8.60;99.90;;;;;;6236888;23;20209;-85
2022/11/23 06:52:37;;;;;;;9.70;4.63;;;8.50;99.90;;;;;;6235294;23;20195;-83
2022/11/23 06:55:05;;;;;;;5.57;4.07;;;8.60;99.90;;;;;;6224464;23;20203;-83
2022/11/23 06:57:31;;;;;;;9.77;4.25;;;8.60;99.90;;;;;;6226464;23;20278;-84
2022/11/23 06:59:58;;;;;;;8.48;3.65;;;8.60;99.90;;;;;;6225766;23;20262;-82
2022/11/23 07:02:27;;;;;;;6.55;4.55;;;8.60;99.90;;;;;;6228181;23;20223;-83
2022/11/23 07:04:55;;;;;;;5.93;3.80;;;8.60;99.90;;;;;;6228698;23;20713;-84
2022/11/23 07:07:22;;;;;;;6.80;4.72;;;8.60;99.90;;;;;;6229563;23;20182;-83
2022/11/23 07:09:49;;;;;;;8.15;4.90;;;8.60;99.90;;;;;;6227542;23;20239;-83
2022/11/23 07:12:16;;;;;;;11.07;7.03;;;8.50;99.90;;;;;;6228726;23;20246;-84
2022/11/23 07:14:42;;;;;;;7.20;4.60;;;8.60;99.90;;;;;;6227858;23;20240;-83
2022/11/23 07:17:13;;;;;;;7.93;4.90;;;8.50;99.90;;;;;;6227039;23;20200;-85
2022/11/23 07:19:41;;;;;;;5.03;3.67;;;8.50;99.90;;;;;;6227005;23;20198;-83
2022/11/23 07:22:08;;;;;;;8.32;3.90;;;8.60;99.90;;;;;;6229422;23;20247;-82
2022/11/23 07:24:34;;;;;;;7.68;3.42;;;8.60;99.90;;;;;;6229530;23;20255;-82
2022/11/23 07:27:01;;;;;;;4.47;3.80;;;8.60;99.90;;;;;;6228670;23;20257;-83
2022/11/23 07:29:28;;;;;;;7.70;3.70;;;8.50;99.90;;;;;;6226665;23;20214;-81
2022/11/23 07:31:55;;;;;;;9.00;3.72;;;8.50;99.90;;;;;;6222834;23;20531;-82
2022/11/23 07:34:22;;;;;;;6.88;3.75;;;8.50;99.90;;;;;;6223617;23;20203;-82
2022/11/23 07:36:50;;;;;;;6.70;3.10;;;8.40;99.90;;;;;;6223916;23;20204;-82
2022/11/23 07:39:16;;;;;;;6.80;4.13;;;8.40;99.90;;;;;;6225255;23;20207;-83
2022/11/23 07:41:43;;;;;;;6.35;2.60;;;8.30;99.90;;;;;;6222376;23;20223;-82
2022/11/23 07:44:10;;;;;;;7.05;3.80;;;8.30;99.90;;;;;;6222859;23;20182;-83
2022/11/23 07:46:37;;;;;;;10.75;4.18;;;8.30;99.90;;;;;;6222646;23;20239;-82
2022/11/23 07:49:04;;;;;;;6.93;3.42;;;8.30;99.90;;;;;;6228680;23;20231;-81
2022/11/23 07:51:31;;;;;;;8.25;4.47;;;8.30;99.90;;;;;;6228340;23;20247;-81
2022/11/23 07:53:59;;;;;;;7.85;3.67;;;8.30;99.90;;;;;;6226670;23;20634;-81
2022/11/23 07:56:26;;;;;;;9.27;3.67;;;8.40;99.90;;;;;;6225244;23;20251;-83
2022/11/23 07:58:53;;;;;;;8.95;4.70;;;8.40;99.90;;;;;;6222805;23;20591;-82
2022/11/23 08:01:20;;;;;;;10.80;3.08;;;8.60;99.90;;;;;;6222835;23;20195;-81
2022/11/23 08:03:48;;;;;;;4.13;3.33;;;9.00;99.90;;;;;;6221474;23;20205;-84
2022/11/23 08:06:16;;;;;;;5.03;2.70;;;9.80;99.90;;;;;;6222239;23;20788;-81
2022/11/23 08:08:43;;;;;;;4.63;2.65;;;10.50;99.90;;;;;;6223257;23;20206;-81
2022/11/23 08:11:13;;;;;;;3.58;2.60;;;10.70;99.90;;;;;;6227219;23;20202;-81
2022/11/23 08:13:40;;;;;;;11.77;2.92;;;10.70;99.90;;;;;;6241924;23;20192;-81
2022/11/23 08:16:07;;;;;;;8.75;2.75;;;10.50;99.90;;;;;;6242087;22;20261;-82
2022/11/23 08:18:34;;;;;;;4.60;2.40;;;10.30;99.90;;;;;;6238088;23;20182;-80
2022/11/23 08:21:01;;;;;;;6.80;3.25;;;10.20;99.90;;;;;;6240689;22;20184;-83
2022/11/23 08:23:28;;;;;;;11.60;4.72;;;9.90;99.90;;;;;;6239258;22;20186;-81
2022/11/23 08:25:56;;;;;;;6.53;3.40;;;9.70;99.90;;;;;;6239464;22;20176;-81
2022/11/23 08:28:24;;;;;;;6.60;3.15;;;9.40;99.90;;;;;;6239758;22;20212;-82
2022/11/23 08:30:51;;;;;;;5.25;3.40;;;9.10;99.90;;;;;;6236611;22;20218;-82
2022/11/23 08:33:18;;;;;;;10.60;3.05;;;9.00;99.90;;;;;;6234712;23;20191;-81
2022/11/23 08:35:45;;;;;;;8.07;3.25;;;9.00;99.90;;;;;;6234967;23;20290;-83
2022/11/23 08:38:12;;;;;;;12.73;3.75;;;9.00;99.90;;;;;;6233505;23;20253;-83
2022/11/23 08:40:39;;;;;;;7.63;4.03;;;8.80;99.90;;;;;;6232392;23;20223;-83
2022/11/23 08:43:06;;;;;;;6.63;4.75;;;8.90;99.90;;;;;;6231910;23;20191;-82
2022/11/23 08:45:34;;;;;;;3.78;3.13;;;8.90;99.90;;;;;;6235500;23;20191;-83
2022/11/23 08:48:02;;;;;;;4.82;3.45;;;9.00;99.90;;;;;;6234643;23;20611;-82
2022/11/23 08:50:30;;;;;;;6.93;3.25;;;9.00;99.90;;;;;;6234154;23;20206;-81
2022/11/23 08:52:58;;;;;;;8.65;3.45;;;9.00;99.90;;;;;;6233967;23;20183;-83
2022/11/23 08:55:26;;;;;;;8.68;3.83;;;9.10;99.90;;;;;;6235794;23;20180;-82
2022/11/23 08:57:55;;;;;;;4.10;3.55;;;9.20;99.90;;;;;;6234454;23;20200;-83
2022/11/23 09:00:22;;;;;;;6.25;3.58;;;9.20;99.90;;;;;;6233427;23;20164;-83
2022/11/23 09:02:50;;;;;;;8.63;3.65;;;9.20;99.90;;;;;;6234852;23;20184;-81
2022/11/23 09:05:17;;;;;;;4.15;2.80;;;9.10;99.90;;;;;;6234053;23;20191;-81
2022/11/23 09:07:44;;;;;;;6.38;3.47;;;9.10;99.90;;;;;;6228761;23;20183;-83
2022/11/23 09:10:11;;;;;;;5.35;3.38;;;9.20;99.90;;;;;;6227747;23;20200;-83
2022/11/23 09:12:38;;;;;;;6.55;4.78;;;9.30;99.90;;;;;;6226843;23;20175;-83
2022/11/23 09:15:06;;;;;;;7.22;3.83;;;9.30;99.90;;;;;;6232519;23;20244;-81
2022/11/23 09:17:33;;;;;;;4.78;3.00;;;9.30;99.90;;;;;;6230982;23;20579;-81
2022/11/23 09:20:01;;;;;;;5.00;3.20;;;9.40;99.90;;;;;;6225141;23;20203;-82
2022/11/23 09:22:28;;;;;;;4.75;3.25;;;9.40;99.90;;;;;;6223850;23;20251;-83
2022/11/23 09:24:55;;;;;;;6.80;3.25;;;9.30;99.90;;;;;;6229167;23;20210;-83
2022/11/23 09:27:22;;;;;;;4.80;3.05;;;9.30;99.90;;;;;;6226023;23;20175;-82
2022/11/23 09:29:48;;;;;;;8.45;3.40;;;9.30;99.90;;;;;;6228473;23;20197;-83
2022/11/23 09:32:15;;;;;;;4.72;3.05;;;9.50;99.90;;;;;;6228955;23;20203;-84
2022/11/23 09:34:44;;;;;;;8.50;3.80;;;9.50;99.90;;;;;;6227064;23;20200;-83
2022/11/23 09:37:12;;;;;;;4.53;3.55;;;9.60;99.90;;;;;;6222816;23;20226;-82
2022/11/23 09:39:39;;;;;;;11.95;3.85;;;9.70;99.90;;;;;;6222830;23;20191;-83
2022/11/23 09:42:34;;;;;;;5.88;3.40;;;9.70;99.90;;;;;;6223448;23;20197;-82
2022/11/23 09:45:18;;;;;;;6.20;3.38;;;9.70;99.90;;;;;;6230017;23;20191;-81
2022/11/23 09:48:03;;;;;;;7.47;5.85;;;9.80;99.90;;;;;;6222193;23;20195;-82
2022/11/23 09:50:40;;;;;;;5.20;2.72;;;10.00;99.90;;;;;;6222358;23;20199;-82
2022/11/23 09:53:14;;;;;;;6.30;3.67;;;10.10;99.90;;;;;;6222975;23;20206;-82
2022/11/23 09:55:43;;;;;;;6.63;2.85;;;9.90;99.90;;;;;;6221480;23;20542;-80
2022/11/23 09:58:14;;;;;;;5.63;2.65;;;10.00;99.90;;;;;;6220434;23;20233;-80
2022/11/23 10:00:46;;;;;;;6.13;3.10;;;9.90;99.90;;;;;;6222394;23;20240;-80
2022/11/23 10:03:15;;;;;;;6.72;3.85;;;10.10;99.90;;;;;;6222528;23;20165;-81
2022/11/23 10:05:47;;;;;;;3.33;2.95;;;10.20;99.90;;;;;;6222183;23;20339;-81
2022/11/23 10:08:25;;;;;;;6.05;3.10;;;10.30;99.90;;;;;;6223140;23;20443;-79
2022/11/23 10:10:57;;;;;;;8.88;3.28;;;10.60;99.90;;;;;;6228146;23;20224;-80
2022/11/23 10:13:36;;;;;;;8.05;2.88;;;10.60;99.90;;;;;;6231715;23;20189;-80
2022/11/23 10:16:19;;;;;;;6.93;3.28;;;10.60;99.90;;;;;;6232939;23;20221;-80
2022/11/23 10:18:57;;;;;;;6.20;3.25;;;10.60;99.90;;;;;;6231136;23;20162;-81
2022/11/23 10:21:34;;;;;;;6.65;3.10;;;10.70;99.90;;;;;;6225554;23;20230;-80
2022/11/23 10:24:14;;;;;;;11.90;4.00;;;10.60;99.90;;;;;;6230133;23;20203;-79
2022/11/23 10:26:44;;;;;;;9.45;3.92;;;10.70;99.90;;;;;;6230591;23;20189;-80
2022/11/23 10:29:14;;;;;;;8.35;3.03;;;10.60;99.90;;;;;;6237469;23;20205;-81
2022/11/23 10:31:45;;;;;;;4.20;2.30;;;10.70;99.90;;;;;;6234738;23;20288;-80
2022/11/23 10:34:15;;;;;;;6.70;3.00;;;10.80;99.90;;;;;;6232447;23;20183;-80
2022/11/23 10:36:42;;;;;;;9.43;3.08;;;10.90;99.90;;;;;;6228387;23;20227;-80
2022/11/23 10:39:22;;;;;;;3.42;2.50;;;10.80;99.90;;;;;;6227547;23;20707;-80
2022/11/23 10:41:51;;;;;;;6.00;2.92;;;10.80;99.90;;;;;;6225003;23;20201;-80
2022/11/23 10:44:36;;;;;;;8.65;3.47;;;10.70;99.90;;;;;;6224516;23;20223;-80
2022/11/23 10:47:04;;;;;;;4.13;3.05;;;10.70;99.90;;;;;;6222208;23;20173;-80
2022/11/23 10:49:32;;;;;;;7.35;3.58;;;10.80;99.90;;;;;;6222226;23;20193;-80
2022/11/23 10:52:02;;;;;;;7.00;3.88;;;10.90;99.90;;;;;;6223922;23;20230;-81
2022/11/23 10:54:34;;;;;;;4.47;2.60;;;10.90;99.90;;;;;;6224798;23;20201;-81
2022/11/23 10:57:03;;;;;;;8.13;3.53;;;10.90;99.90;;;;;;6223715;23;20184;-79
2022/11/23 10:59:34;;;;;;;5.63;2.67;;;10.70;99.90;;;;;;6220456;23;20165;-79
2022/11/23 11:02:18;;;;;;;7.03;3.08;;;11.00;99.90;;;;;;6225200;23;20199;-81
2022/11/23 11:04:47;;;;;;;7.10;4.55;;;11.00;99.90;;;;;;6231505;23;20223;-80
2022/11/23 11:07:30;;;;;;;6.35;3.97;;;10.90;99.90;;;;;;6230389;23;20178;-79
2022/11/23 11:10:27;;;;;;;3.78;3.15;;;10.80;99.90;;;;;;6233733;23;20170;-80
2022/11/23 11:13:00;;;;;;;5.88;3.47;;;11.10;99.90;;;;;;6228273;22;20169;-81
2022/11/23 11:15:27;;;;;;;7.07;2.65;;;11.10;99.90;;;;;;6217690;23;20182;-82
2022/11/23 11:17:56;;;;;;;6.15;3.40;;;11.10;99.90;;;;;;6220963;23;20192;-82
2022/11/23 11:20:32;;;;;;;5.25;2.85;;;11.10;99.90;;;;;;6219479;23;20519;-81
2022/11/23 11:23:00;;;;;;;6.45;3.03;;;11.10;99.90;;;;;;6221481;23;20170;-80
2022/11/23 11:25:30;;;;;;;6.90;3.33;;;11.00;99.90;;;;;;6220033;23;20188;-80
2022/11/23 11:28:00;;;;;;;11.95;5.22;;;11.00;99.90;;;;;;6222573;23;20181;-82
2022/11/23 11:30:38;;;;;;;5.15;2.97;;;11.00;99.90;;;;;;6223220;23;20204;-82
2022/11/23 11:33:11;;;;;;;6.18;3.45;;;11.00;99.90;;;;;;6222732;23;20198;-83
2022/11/23 11:35:43;;;;;;;5.75;3.58;;;11.00;99.90;;;;;;6222516;23;20199;-85
2022/11/23 11:38:15;;;;;;;6.25;3.88;;;10.90;99.90;;;;;;6221915;23;20276;-82
2022/11/23 11:40:46;;;;;;;6.50;3.33;;;11.10;99.90;;;;;;6224264;23;20237;-83
2022/11/23 11:43:20;;;;;;;7.40;3.83;;;11.20;99.90;;;;;;6222860;23;20612;-83
2022/11/23 11:45:53;;;;;;;5.05;3.45;;;11.10;99.90;;;;;;6222093;23;20232;-83
2022/11/23 11:48:25;;;;;;;7.30;4.00;;;11.30;99.90;;;;;;6223604;23;20189;-82
2022/11/23 11:50:54;;;;;;;5.57;2.95;;;11.20;99.90;;;;;;6223224;23;20278;-83
2022/11/23 11:53:25;;;;;;;3.50;2.70;;;11.20;99.90;;;;;;6224372;23;20216;-85
2022/11/23 11:55:57;;;;;;;10.93;3.30;;;11.40;99.90;;;;;;6225873;23;20192;-83
2022/11/23 11:58:26;;;;;;;7.32;3.28;;;11.40;99.90;;;;;;6218806;23;20209;-83
2022/11/23 12:01:00;;;;;;;4.28;2.83;;;11.60;99.90;;;;;;6218609;23;20202;-82
2022/11/23 12:03:40;;;;;;;8.77;4.60;;;11.70;99.90;;;;;;6221584;23;20194;-84
2022/11/23 12:06:14;;;;;;;4.55;2.15;;;11.80;99.90;;;;;;6226969;23;20166;-83
2022/11/23 12:08:47;;;;;;;6.05;3.22;;;11.70;99.90;;;;;;6230376;23;20555;-83
2022/11/23 12:11:14;;;;;;;6.03;2.42;;;11.70;99.90;;;;;;6227876;23;20222;-83
2022/11/23 12:13:45;;;;;;;6.68;2.60;;;11.70;99.90;;;;;;6228875;23;20217;-83
2022/11/23 12:16:21;;;;;;;4.38;2.70;;;11.70;99.90;;;;;;6236254;23;20167;-82
2022/11/23 12:19:02;;;;;;;7.78;3.92;;;11.80;99.90;;;;;;6234779;23;20210;-83
2022/11/23 12:22:04;;;;;;;4.50;2.83;;;11.70;99.90;;;;;;6233467;23;20284;-83
2022/11/23 12:24:50;;;;;;;7.22;3.38;;;11.80;99.90;;;;;;6228338;23;20194;-83
2022/11/23 12:27:29;;;;;;;7.57;3.78;;;11.90;99.90;;;;;;6224001;23;20202;-83
2022/11/23 12:30:16;;;;;;;5.13;2.60;;;11.80;99.90;;;;;;6221694;23;20824;-82
2022/11/23 12:32:55;;;;;;;7.25;2.75;;;11.70;99.90;;;;;;6222524;23;20191;-83
2022/11/23 12:35:47;;;;;;;13.68;2.03;;;11.90;99.90;;;;;;6224516;23;20237;-83
2022/11/23 12:38:29;;;;;;;7.18;2.80;;;11.80;99.90;;;;;;6222107;23;20242;-83
2022/11/23 12:41:24;;;;;;;3.13;1.95;;;11.90;99.90;;;;;;6221954;23;20230;-83
2022/11/23 12:44:33;;;;;;;6.82;3.10;;;11.90;99.90;;;;;;6224136;23;20209;-82
2022/11/23 12:47:08;;;;;;;10.82;2.90;;;11.90;99.90;;;;;;6223303;23;20175;-82
2022/11/23 12:49:43;;;;;;;5.00;2.28;;;12.20;99.90;;;;;;6224143;23;20187;-82
2022/11/23 12:52:30;;;;;;;6.03;2.30;;;12.10;99.90;;;;;;6222829;23;20532;-83
2022/11/23 12:55:06;;;;;;;5.47;2.25;;;12.20;99.90;;;;;;6221401;23;20613;-84
2022/11/23 12:57:40;;;;;;;8.02;3.60;;;12.10;99.90;;;;;;6223839;23;20244;-84
2022/11/23 13:00:15;;;;;;;6.55;2.58;;;12.20;99.90;;;;;;6224668;23;20190;-83
2022/11/23 13:03:20;;;;;;;8.32;3.75;;;12.20;99.90;;;;;;6223388;23;20201;-83
2022/11/23 13:06:27;;;;;;;6.80;2.63;;;12.20;99.90;;;;;;6222545;23;20212;-83